createdAt,value
2018-11-06T00:00:41.613Z,48983.27
2018-11-06T00:03:15.128Z,48994.35
2018-11-06T00:05:43.283Z,49004.42
2018-11-06T00:08:11.467Z,49013.48
2018-11-06T00:10:39.562Z,49022.55
2018-11-06T00:13:07.641Z,49019.52
2018-11-06T00:15:35.761Z,49014.49
2018-11-06T00:18:03.855Z,49016.50
2018-11-06T00:20:31.957Z,49017.51
2018-11-06T00:23:00.228Z,49021.54
2018-11-06T00:25:28.315Z,49013.48
2018-11-06T00:27:56.430Z,49027.58
2018-11-06T00:30:24.537Z,49030.61
2018-11-06T00:32:52.655Z,49032.62
2018-11-06T00:35:20.773Z,49024.56
2018-11-06T00:37:48.907Z,49025.57
2018-11-06T00:40:17.020Z,49019.52
2018-11-06T00:42:45.131Z,49032.62
2018-11-06T00:45:15.306Z,49014.49
2018-11-06T00:47:43.441Z,49017.51
2018-11-06T00:50:12.165Z,49026.57
2018-11-06T00:52:41.138Z,49041.68
2018-11-06T00:55:09.810Z,49035.64
2018-11-06T00:57:38.908Z,49034.63
2018-11-06T01:00:09.519Z,49034.63
2018-11-06T01:02:37.765Z,49043.70
2018-11-06T01:05:06.375Z,49036.64
2018-11-06T01:07:34.470Z,49034.63
2018-11-06T01:10:02.586Z,49038.66
2018-11-06T01:12:30.689Z,49056.79
2018-11-06T01:23:46.526Z,49060.82
2018-11-06T01:29:07.443Z,49066.86
2018-11-06T01:31:35.554Z,49057.80
2018-11-06T01:34:03.670Z,49068.87
2018-11-06T01:36:31.802Z,49081.97
2018-11-06T01:38:59.941Z,49079.95
2018-11-06T01:41:28.016Z,49088.01
2018-11-06T01:43:56.109Z,49082.97
2018-11-06T01:46:24.209Z,49073.91
2018-11-06T01:48:52.321Z,49079.95
2018-11-06T01:51:20.408Z,49090.02
2018-11-06T01:53:48.533Z,49094.05
2018-11-06T01:56:16.672Z,49087.00
2018-11-06T01:58:44.793Z,49096.07
2018-11-06T02:01:12.929Z,49119.23
2018-11-06T02:03:41.038Z,49116.21
2018-11-06T02:06:09.238Z,49126.28
2018-11-06T02:08:37.346Z,49124.27
2018-11-06T02:11:05.482Z,49129.30
2018-11-06T02:16:26.319Z,49143.40
2018-11-06T02:18:54.414Z,49146.42
2018-11-06T02:21:38.657Z,49148.44
2018-11-06T02:30:01.847Z,49162.54
2018-11-06T02:32:30.038Z,49164.55
2018-11-06T02:34:58.131Z,49170.59
2018-11-06T02:37:26.226Z,49172.61
2018-11-06T02:39:54.355Z,49172.61
2018-11-06T02:42:22.470Z,49175.63
2018-11-06T02:44:50.572Z,49176.64
2018-11-06T02:47:18.711Z,49185.70
2018-11-06T02:49:46.834Z,49174.62
2018-11-06T02:52:14.933Z,49179.66
2018-11-06T02:54:43.045Z,49184.70
2018-11-06T02:57:11.130Z,49195.77
2018-11-06T02:59:39.251Z,49196.78
2018-11-06T03:02:07.357Z,49200.81
2018-11-06T03:04:35.470Z,49211.89
2018-11-06T03:07:03.607Z,49204.84
2018-11-06T03:09:31.704Z,49211.89
2018-11-06T03:11:59.844Z,49212.89
2018-11-06T03:23:22.690Z,49229.01
2018-11-06T03:28:42.993Z,49231.02
2018-11-06T03:31:11.086Z,49233.04
2018-11-06T03:33:39.224Z,49233.04
2018-11-06T03:36:07.415Z,49229.01
2018-11-06T03:38:35.502Z,49230.02
2018-11-06T03:41:03.646Z,49232.03
2018-11-06T03:43:31.750Z,49238.07
2018-11-06T03:45:59.861Z,49239.08
2018-11-06T03:48:27.990Z,49245.12
2018-11-06T03:50:56.087Z,49238.07
2018-11-06T03:53:24.197Z,49242.10
2018-11-06T03:55:52.280Z,49243.11
2018-11-06T03:58:20.378Z,49245.12
2018-11-06T04:00:48.504Z,49245.12
2018-11-06T04:03:16.626Z,49257.21
2018-11-06T04:05:44.746Z,49258.22
2018-11-06T04:08:12.818Z,49257.21
2018-11-06T04:10:40.950Z,49265.27
2018-11-06T04:13:23.602Z,49275.34
2018-11-06T04:15:51.729Z,49276.35
2018-11-06T04:18:19.854Z,49279.37
2018-11-06T04:20:47.965Z,49284.40
2018-11-06T04:26:08.822Z,49282.39
2018-11-06T04:28:36.917Z,49283.39
2018-11-06T04:31:05.095Z,49300.52
2018-11-06T04:33:33.268Z,49299.51
2018-11-06T04:36:01.363Z,49296.49
2018-11-06T04:38:29.487Z,49295.48
2018-11-06T04:40:58.125Z,49295.48
2018-11-06T04:43:26.267Z,49293.47
2018-11-06T04:45:54.377Z,49302.53
2018-11-06T04:48:22.480Z,49294.48
2018-11-06T04:50:50.616Z,49306.56
2018-11-06T04:53:18.737Z,49309.58
2018-11-06T04:55:46.845Z,49308.57
2018-11-06T04:58:14.922Z,49309.58
2018-11-06T05:00:43.016Z,49317.64
2018-11-06T05:03:11.125Z,49320.66
2018-11-06T05:05:39.213Z,49314.62
2018-11-06T05:08:07.315Z,49323.68
2018-11-06T05:10:35.439Z,49318.65
2018-11-06T05:13:03.530Z,49315.62
2018-11-06T05:15:31.637Z,49321.67
2018-11-06T05:17:59.754Z,49323.68
2018-11-06T05:20:27.853Z,49320.66
2018-11-06T05:25:48.918Z,49321.67
2018-11-06T05:28:17.030Z,49333.75
2018-11-06T05:30:45.149Z,49331.74
2018-11-06T05:33:13.308Z,49328.72
2018-11-06T05:35:41.473Z,49332.75
2018-11-06T05:38:09.569Z,49330.73
2018-11-06T05:40:49.014Z,49331.74
2018-11-06T05:43:17.155Z,49339.80
2018-11-06T05:45:45.342Z,49331.74
2018-11-06T05:48:13.379Z,49332.75
2018-11-06T05:50:41.490Z,49211.89
2018-11-06T05:53:09.686Z,49349.87
2018-11-06T05:55:37.879Z,49349.87
2018-11-06T05:58:06.058Z,49343.83
2018-11-06T06:00:34.226Z,49351.89
2018-11-06T06:03:02.240Z,49349.87
2018-11-06T06:05:30.367Z,49349.87
2018-11-06T06:07:58.489Z,49339.80
2018-11-06T06:10:26.654Z,49341.81
2018-11-06T06:12:54.804Z,49348.86
2018-11-06T06:15:22.908Z,49335.77
2018-11-06T06:17:51.098Z,49341.81
2018-11-06T06:23:11.496Z,49351.89
2018-11-06T06:28:33.251Z,49345.84
2018-11-06T06:31:01.307Z,49338.79
2018-11-06T06:33:29.446Z,49334.76
2018-11-06T06:35:57.554Z,49342.82
2018-11-06T06:38:25.679Z,49340.80
2018-11-06T06:40:53.860Z,49333.75
2018-11-06T06:43:21.966Z,49326.71
2018-11-06T06:45:50.041Z,49338.79
2018-11-06T06:48:18.170Z,49335.77
2018-11-06T06:50:46.318Z,49319.66
2018-11-06T06:53:14.465Z,49328.72
2018-11-06T06:55:42.637Z,49334.76
2018-11-06T06:58:10.789Z,49338.79
2018-11-06T07:00:38.906Z,49331.74
2018-11-06T07:03:07.025Z,49343.83
2018-11-06T07:05:35.150Z,49343.83
2018-11-06T07:08:03.330Z,49336.78
2018-11-06T07:10:31.456Z,49332.75
2018-11-06T07:13:11.732Z,49335.77
2018-11-06T07:15:39.909Z,49344.84
2018-11-06T07:18:08.003Z,49341.81
2018-11-06T07:20:36.105Z,49342.82
2018-11-06T07:23:04.252Z,49339.80
2018-11-06T08:30:46.285Z,50025.75
2018-11-06T08:33:14.304Z,50063.03
2018-11-06T08:35:42.423Z,50050.94
2018-11-06T08:38:10.520Z,50102.31
2018-11-06T08:40:38.633Z,50140.59
2018-11-06T08:43:06.724Z,50171.82
2018-11-06T08:45:34.817Z,50193.99
2018-11-06T08:48:02.954Z,50259.47
2018-11-06T08:50:31.013Z,50269.54
2018-11-06T08:52:59.103Z,50261.48
2018-11-06T08:55:27.181Z,50251.41
2018-11-06T08:57:55.853Z,50265.52
2018-11-06T09:00:23.960Z,50281.63
2018-11-06T09:02:52.063Z,50266.52
2018-11-06T09:05:20.178Z,50302.79
2018-11-06T09:07:48.274Z,50296.74
2018-11-06T09:10:16.897Z,50284.66
2018-11-06T09:21:32.246Z,50494.21
2018-11-06T09:29:32.286Z,50345.10
2018-11-06T09:32:00.375Z,50346.11
2018-11-06T09:34:28.981Z,50368.27
2018-11-06T09:36:57.135Z,50359.21
2018-11-06T09:39:25.261Z,50372.30
2018-11-06T09:41:53.363Z,50407.56
2018-11-06T09:44:21.486Z,50395.47
2018-11-06T09:46:49.608Z,50399.50
2018-11-06T09:49:17.740Z,50276.59
2018-11-06T09:51:45.864Z,50146.64
2018-11-06T09:54:14.149Z,50021.73
2018-11-06T09:56:42.243Z,49994.53
2018-11-06T09:59:10.319Z,49944.16
2018-11-06T10:01:38.410Z,49951.21
2018-11-06T10:04:06.522Z,49975.39
2018-11-06T10:06:34.698Z,50010.64
2018-11-06T10:09:02.749Z,49962.29
2018-11-06T10:11:30.910Z,49944.16
2018-11-06T10:16:51.449Z,49909.91
2018-11-06T10:19:19.534Z,49881.70
2018-11-06T10:21:53.318Z,49875.66
2018-11-06T11:17:44.491Z,49990.50
2018-11-06T11:20:28.639Z,50012.66
2018-11-06T11:31:44.241Z,50120.45
2018-11-06T11:34:12.492Z,50117.43
2018-11-06T11:36:40.595Z,50081.16
2018-11-06T11:39:09.005Z,50074.11
2018-11-06T11:41:37.157Z,50025.75
2018-11-06T11:44:05.254Z,50069.07
2018-11-06T11:46:33.361Z,50036.84
2018-11-06T11:49:01.462Z,50066.05
2018-11-06T11:51:29.545Z,50067.05
2018-11-06T11:53:57.637Z,50061.01
2018-11-06T11:56:25.753Z,50072.09
2018-11-06T11:58:53.847Z,50049.93
2018-11-06T12:01:21.934Z,50077.13
2018-11-06T12:03:50.011Z,50042.88
2018-11-06T12:06:18.127Z,50062.02
2018-11-06T12:08:46.241Z,50019.71
2018-11-06T12:11:14.302Z,50014.67
2018-11-06T12:16:35.525Z,50005.61
2018-11-06T12:20:10.901Z,50015.68
2018-11-06T13:14:14.699Z,49649.02
2018-11-06T13:16:42.800Z,49617.79
2018-11-06T13:19:10.884Z,49627.86
2018-11-06T13:24:37.303Z,49635.92
2018-11-06T13:27:05.661Z,49627.86
2018-11-06T13:29:33.781Z,49621.82
2018-11-06T13:32:01.899Z,49623.84
2018-11-06T13:34:29.994Z,49627.86
2018-11-06T13:36:58.113Z,49621.82
2018-11-06T13:39:26.186Z,49623.84
2018-11-06T13:41:54.336Z,49621.82
2018-11-06T13:44:22.719Z,49627.86
2018-11-06T13:46:50.498Z,49622.83
2018-11-06T13:49:18.582Z,49618.80
2018-11-06T13:51:46.705Z,49621.82
2018-11-06T13:54:14.816Z,49609.73
2018-11-06T13:56:42.914Z,49605.71
2018-11-06T13:59:11.005Z,49597.65
2018-11-06T14:01:39.101Z,49593.62
2018-11-06T14:04:07.258Z,49591.60
2018-11-06T14:06:35.343Z,49595.63
2018-11-06T14:09:03.530Z,49586.57
2018-11-06T14:11:31.623Z,49590.60
2018-11-06T14:16:52.810Z,49589.59
2018-11-06T14:19:20.925Z,49575.49
2018-11-06T14:24:41.530Z,49584.55
2018-11-06T14:27:11.637Z,49565.41
2018-11-06T14:29:39.666Z,49561.39
2018-11-06T14:32:07.786Z,49561.39
2018-11-06T14:34:35.929Z,49562.39
2018-11-06T14:37:04.062Z,49536.21
2018-11-06T14:39:32.148Z,49561.39
2018-11-06T14:42:00.306Z,49571.46
2018-11-06T14:44:28.391Z,49565.41
2018-11-06T14:46:56.507Z,49539.23
2018-11-06T14:49:24.640Z,49501.96
2018-11-06T14:51:52.702Z,49458.65
2018-11-06T14:54:20.811Z,49422.39
2018-11-06T14:56:48.910Z,49394.19
2018-11-06T14:59:17.117Z,49386.13
2018-11-06T15:01:45.322Z,49363.97
2018-11-06T15:04:13.433Z,49356.92
2018-11-06T15:06:41.533Z,49359.94
2018-11-06T15:09:09.842Z,49352.89
2018-11-06T15:11:38.373Z,49368.00
2018-11-06T15:14:06.813Z,49362.96
2018-11-06T15:25:23.867Z,49364.98
2018-11-06T16:13:21.363Z,50705.78
2018-11-06T16:15:49.477Z,50716.87
2018-11-06T16:18:17.558Z,50666.49
2018-11-06T16:20:58.355Z,50602.01
2018-11-06T16:26:18.950Z,50631.23
2018-11-06T16:28:47.049Z,50486.14
2018-11-06T16:31:15.166Z,50418.64
2018-11-06T16:33:43.260Z,50469.02
2018-11-06T16:36:11.376Z,50479.09
2018-11-06T16:38:39.482Z,50530.48
2018-11-06T16:41:07.578Z,50345.10
2018-11-06T16:43:35.684Z,50443.83
2018-11-06T16:46:03.781Z,50627.20
2018-11-06T16:48:31.945Z,50632.23
2018-11-06T16:51:00.026Z,50952.64
2018-11-06T16:53:28.139Z,51162.22
2018-11-06T16:55:56.214Z,50642.31
2018-11-06T16:58:24.288Z,50780.34
2018-11-06T17:00:52.417Z,50925.43
2018-11-06T17:03:20.526Z,51145.09
2018-11-06T17:05:48.617Z,51425.23
2018-11-06T17:08:16.750Z,51811.21
2018-11-06T17:10:44.875Z,51888.81
2018-11-06T17:24:17.098Z,51945.25
2018-11-06T17:26:45.217Z,51827.33
2018-11-06T17:29:19.786Z,51740.66
2018-11-06T17:31:47.866Z,51713.45
2018-11-06T17:34:16.059Z,51746.71
2018-11-06T17:36:44.103Z,51680.19
2018-11-06T17:39:13.586Z,51597.55
2018-11-06T17:41:41.658Z,51537.09
2018-11-06T17:44:09.771Z,51457.48
2018-11-06T17:46:38.170Z,51465.54
2018-11-06T17:49:06.286Z,51427.25
2018-11-06T17:51:34.541Z,51336.55
2018-11-06T17:54:02.629Z,51297.25
2018-11-06T17:56:31.810Z,51283.14
2018-11-06T17:58:59.967Z,51295.23
2018-11-06T18:01:28.074Z,51334.54
2018-11-06T18:03:56.221Z,51287.18
2018-11-06T18:06:24.296Z,51295.23
2018-11-06T18:08:52.398Z,51347.64
2018-11-06T18:11:20.487Z,51276.09
2018-11-06T18:16:41.345Z,51438.33
2018-11-06T18:19:09.399Z,51491.74
2018-11-06T18:24:29.993Z,51462.52
2018-11-06T18:26:58.149Z,51470.58
2018-11-06T18:29:26.244Z,51308.34
2018-11-06T18:31:54.411Z,51488.72
2018-11-06T18:34:22.515Z,51493.75
2018-11-06T18:36:50.601Z,51543.14
2018-11-06T18:39:18.702Z,51462.52
2018-11-06T18:41:46.804Z,51210.59
2018-11-06T18:44:15.035Z,51171.29
2018-11-06T18:46:43.071Z,51191.45
2018-11-06T18:49:11.194Z,51211.60
2018-11-06T18:51:39.327Z,51240.82
2018-11-06T18:54:07.461Z,51363.76
2018-11-06T18:56:35.550Z,51326.48
2018-11-06T18:59:03.666Z,51345.62
2018-11-06T19:01:31.744Z,51391.98
2018-11-06T19:03:59.862Z,51354.69
2018-11-06T19:06:27.953Z,51322.44
2018-11-06T19:08:56.054Z,51345.62
2018-11-06T19:11:24.149Z,51316.40
2018-11-06T19:14:08.369Z,51270.04
2018-11-06T19:22:24.631Z,51376.86
2018-11-06T19:24:52.836Z,51377.87
2018-11-06T20:17:49.608Z,51024.18
2018-11-06T20:23:10.420Z,51057.43
2018-11-06T20:25:38.814Z,51140.05
2018-11-06T20:28:10.810Z,51307.33
2018-11-06T20:30:39.167Z,51397.02
2018-11-06T20:33:07.309Z,51450.42
2018-11-06T20:35:35.564Z,51516.93
2018-11-06T20:38:03.743Z,51510.89
2018-11-06T20:40:31.759Z,51521.97
2018-11-06T20:43:00.185Z,51578.41
2018-11-06T20:45:28.101Z,51599.57
2018-11-06T20:47:56.190Z,51652.98
2018-11-06T20:50:24.961Z,51738.64
2018-11-06T20:52:53.175Z,51773.92
2018-11-06T20:55:21.228Z,51830.36
2018-11-06T20:57:49.346Z,51878.73
2018-11-06T21:00:24.987Z,-16880.09
2018-11-06T21:02:54.356Z,-16880.09
2018-11-06T21:05:22.525Z,-16880.09
2018-11-06T21:07:50.705Z,-16880.09
2018-11-06T21:10:19.985Z,-16880.09
2018-11-06T21:12:48.070Z,-16880.09
2018-11-06T21:15:16.220Z,-16880.09
2018-11-06T21:17:44.500Z,-16880.09
2018-11-06T21:20:13.456Z,-16880.09
2018-11-06T21:22:41.506Z,-16880.09
2018-11-06T21:25:09.995Z,-16880.09
2018-11-06T21:27:38.583Z,-16880.09
2018-11-06T21:30:09.881Z,-16880.09
2018-11-06T21:32:38.281Z,-16880.09
2018-11-06T21:35:06.962Z,-16880.09
2018-11-06T21:37:35.122Z,-16880.09
2018-11-06T21:40:03.246Z,-16880.09
2018-11-06T21:42:31.380Z,-16880.09
2018-11-06T21:44:59.510Z,-16880.09
2018-11-06T21:47:27.607Z,-16880.09
2018-11-06T21:49:55.728Z,-16880.09
2018-11-06T21:52:23.853Z,-16880.09
2018-11-06T21:54:51.951Z,-16880.09
2018-11-06T21:57:20.095Z,-16880.09
2018-11-06T21:59:48.217Z,-16880.09
2018-11-06T22:02:16.308Z,-16880.09
2018-11-06T22:04:44.416Z,-16880.09
2018-11-06T22:07:12.509Z,-16880.09
2018-11-06T22:09:40.668Z,-16880.09
2018-11-06T22:12:10.689Z,-16880.09
2018-11-06T22:20:33.282Z,-16880.09
